8A0

Albertville Regional-Thomas J Brumlik Field Airport

Albertville, Alabama, USA
METAR K8A0 120915Z AUTO 00000KT 10SM CLR 00/00 A3023 RMK AO2
Observed Flight Rules
Dec-12 @ 09:15 UTC (29 minutes ago) Visual Flight Rules
Visibility Clouds
10 miles
  • Clear skies
Temperatures Readings
Current 0°C / 32°F
Dewpoint 0°C / 32°F
Humidity 100%
Altimeter 30.23" Hg
Pressure 1024 hPa
Elevation 315
METAR K8A0 120915Z AUTO 00000KT 10SM CLR 00/00 A3023 RMK AO2
Observed Flight Rules
Dec-12 @ 09:15 UTC
(29 minutes ago)
VFR
Clouds
  • Clear skies
Temperature Dewpoint
0°C / 32°F 0°C / 32°F
Humidity Altimeter Pressure
100% 30.23" Hg 1024 hPa